Time;durP1;ratioP1;P1;durP2;ratioP2;P2;SDS_P1;SDS_P2;PMS_P1;PMS_P2;Temp;Humidity;BMP_temperature;BMP_pressure;BME280_temperature;BME280_humidity;BME280_pressure;Samples;Min_cycle;Max_cycle;Signal;HPM_P1;HPM_P2
2023/03/30 00:01:21;;;;;;;17.60;10.65;;;7.80;99.90;;;6.38;89.59;100670.63;4942641;28;20023;-79
2023/03/30 00:03:48;;;;;;;19.88;10.82;;;7.80;99.90;;;6.41;90.21;100665.28;4928323;28;20038;-79
2023/03/30 00:06:22;;;;;;;15.13;10.43;;;7.80;99.90;;;6.36;90.28;100662.81;4907097;28;20042;-80
2023/03/30 00:08:55;;;;;;;17.77;11.25;;;7.70;99.90;;;6.36;90.22;100654.97;4933597;28;20034;-79
2023/03/30 00:11:24;;;;;;;19.35;11.23;;;7.70;99.90;;;6.35;90.46;100646.28;4927709;28;20113;-79
2023/03/30 00:13:50;;;;;;;16.48;9.90;;;7.70;99.90;;;6.28;90.56;100644.72;4923641;28;20089;-79
2023/03/30 00:16:17;;;;;;;16.95;10.43;;;7.70;99.90;;;6.28;90.74;100639.50;4946775;28;20051;-80
2023/03/30 00:18:44;;;;;;;18.65;10.57;;;7.60;99.90;;;6.22;90.93;100634.50;4909640;28;20116;-79
2023/03/30 00:21:16;;;;;;;22.45;11.15;;;7.60;99.90;;;6.18;91.37;100632.88;4952121;28;20031;-80
2023/03/30 00:23:45;;;;;;;19.00;10.13;;;7.60;99.90;;;6.09;91.61;100625.28;4941236;28;20542;-79
2023/03/30 00:26:12;;;;;;;19.92;10.77;;;7.50;99.90;;;6.09;92.06;100620.03;4942082;28;20626;-78
2023/03/30 00:28:43;;;;;;;18.58;10.90;;;7.50;99.90;;;6.05;91.84;100621.06;4960460;28;20046;-79
2023/03/30 00:31:10;;;;;;;22.30;11.07;;;7.50;99.90;;;6.11;92.25;100613.91;4949635;28;20059;-80
2023/03/30 00:33:36;;;;;;;20.45;11.05;;;7.50;99.90;;;6.08;91.88;100608.75;4908139;28;20041;-79
2023/03/30 00:36:03;;;;;;;16.55;10.90;;;7.50;99.90;;;6.09;92.13;100613.09;4907514;28;20034;-79
2023/03/30 00:38:29;;;;;;;15.73;11.43;;;7.40;99.90;;;5.97;92.34;100610.81;4890444;28;20046;-82
2023/03/30 00:41:00;;;;;;;18.10;10.50;;;7.30;99.90;;;5.88;92.74;100598.84;4943943;28;20037;-80
2023/03/30 00:43:27;;;;;;;21.08;10.93;;;7.30;99.90;;;5.88;93.33;100601.47;4936897;28;20069;-79
2023/03/30 00:45:56;;;;;;;18.95;11.23;;;7.30;99.90;;;5.95;93.42;100600.41;4895209;28;20114;-80
2023/03/30 00:48:35;;;;;;;18.40;11.00;;;7.40;99.90;;;6.00;92.87;100597.66;4915151;28;20042;-79
2023/03/30 00:51:09;;;;;;;17.42;10.77;;;7.40;99.90;;;6.00;93.23;100596.81;4948054;28;20049;-79
2023/03/30 00:53:46;;;;;;;18.67;10.98;;;7.40;99.90;;;5.95;92.96;100587.34;4946500;28;20256;-81
2023/03/30 00:56:16;;;;;;;18.10;11.00;;;7.30;99.90;;;5.93;93.49;100588.25;4968562;28;20040;-79
2023/03/30 00:58:43;;;;;;;15.40;10.70;;;7.30;99.90;;;5.92;93.78;100574.34;4908874;28;20092;-79
2023/03/30 01:01:24;;;;;;;16.85;10.48;;;7.30;99.90;;;5.84;93.99;100571.09;4884579;28;20122;-79
2023/03/30 01:03:59;;;;;;;13.73;10.38;;;7.30;99.90;;;5.86;95.00;100565.84;4942061;28;20042;-79
2023/03/30 01:06:28;;;;;;;14.77;10.35;;;7.30;99.90;;;5.79;95.05;100562.53;4921029;28;20046;-79
2023/03/30 01:09:01;;;;;;;17.60;10.05;;;7.30;99.90;;;5.89;95.47;100558.72;4930061;28;20117;-78
2023/03/30 01:11:26;;;;;;;19.90;11.50;;;7.30;99.90;;;5.98;95.19;100560.25;4910095;28;20045;-80
2023/03/30 01:14:04;;;;;;;18.42;11.00;;;7.40;99.90;;;5.98;94.94;100562.84;4937311;28;20044;-79
2023/03/30 01:17:00;;;;;;;18.23;11.50;;;7.40;99.90;;;5.99;94.63;100555.91;4946000;28;20158;-79
2023/03/30 01:19:44;;;;;;;21.60;11.25;;;7.40;99.90;;;6.02;95.19;100550.56;4964677;28;20034;-79
2023/03/30 01:23:03;;;;;;;15.95;10.05;;;7.40;99.90;;;6.05;94.48;100545.25;4964287;28;20034;-80
2023/03/30 01:26:05;;;;;;;18.40;11.00;;;7.40;99.90;;;6.02;94.90;100548.81;4932839;28;20038;-80
2023/03/30 01:28:59;;;;;;;18.05;10.38;;;7.50;99.90;;;6.04;94.96;100546.16;4952526;28;22243;-78
2023/03/30 01:32:25;;;;;;;15.23;9.82;;;7.50;99.90;;;6.05;95.03;100542.66;4965020;28;20189;-80
2023/03/30 01:35:21;;;;;;;22.15;10.75;;;7.50;99.90;;;6.06;95.35;100539.13;4946500;28;20057;-80
2023/03/30 01:38:17;;;;;;;20.30;10.70;;;7.50;99.90;;;6.08;95.36;100535.53;4968811;28;20034;-80
2023/03/30 01:40:57;;;;;;;16.67;10.53;;;7.50;99.90;;;6.12;95.50;100531.94;4958659;28;20046;-81
2023/03/30 01:43:45;;;;;;;20.15;10.90;;;7.50;99.90;;;6.17;95.55;100526.56;4965599;28;20304;-80
2023/03/30 01:46:29;;;;;;;17.30;10.95;;;7.50;99.90;;;6.14;95.53;100526.66;4965291;28;20027;-79
2023/03/30 01:49:22;;;;;;;16.40;11.70;;;7.60;99.90;;;6.17;95.90;100531.78;4949702;28;20030;-79
2023/03/30 01:52:31;;;;;;;19.52;11.52;;;7.60;99.90;;;6.19;96.22;100526.53;4919599;28;20352;-80
2023/03/30 01:55:13;;;;;;;19.52;12.48;;;7.60;99.90;;;6.19;96.02;100523.91;4960888;28;20097;-79
2023/03/30 01:58:19;;;;;;;23.20;12.07;;;7.60;99.90;;;6.22;96.03;100521.19;4919457;28;20516;-79
2023/03/30 02:00:50;;;;;;;20.63;12.65;;;7.60;99.90;;;6.15;97.48;100523.13;4924518;28;20065;-79
2023/03/30 02:03:32;;;;;;;26.85;13.45;;;7.60;99.90;;;6.18;97.75;100517.81;4942399;28;20031;-79
2023/03/30 02:06:11;;;;;;;22.27;13.10;;;7.60;99.90;;;6.20;97.62;100513.41;4944252;28;20105;-82
2023/03/30 02:08:40;;;;;;;23.83;14.15;;;7.60;99.90;;;6.22;98.10;100513.34;4945487;28;20068;-81
2023/03/30 02:11:10;;;;;;;25.33;14.40;;;7.60;99.90;;;6.24;98.25;100517.63;4963876;28;20050;-78
2023/03/30 02:13:40;;;;;;;24.27;14.63;;;7.60;99.90;;;6.22;98.55;100508.97;4977585;22;20052;-79
2023/03/30 02:16:36;;;;;;;21.88;13.98;;;7.60;99.90;;;6.24;99.12;100501.06;4953443;28;20041;-78
2023/03/30 02:19:11;;;;;;;30.80;14.50;;;7.60;99.90;;;6.26;99.34;100499.25;4959272;28;20037;-78
2023/03/30 02:21:41;;;;;;;25.50;14.63;;;7.60;99.90;;;6.21;99.87;100496.81;4968951;28;20108;-79
2023/03/30 02:24:27;;;;;;;29.08;16.02;;;7.60;99.90;;;6.20;99.73;100492.50;4979492;28;20151;-79
2023/03/30 02:26:53;;;;;;;24.17;15.37;;;7.60;99.90;;;6.15;100.00;100487.41;4979245;28;20060;-79
2023/03/30 02:29:22;;;;;;;30.33;15.65;;;7.60;99.90;;;6.22;100.00;100501.16;4950089;28;20108;-78
2023/03/30 02:31:55;;;;;;;32.72;16.20;;;7.60;99.90;;;6.14;100.00;100488.31;5005890;28;20560;-79
2023/03/30 02:35:07;;;;;;;27.40;16.08;;;7.50;99.90;;;6.05;100.00;100488.59;5009645;28;20042;-78
2023/03/30 02:38:23;;;;;;;27.65;16.27;;;7.50;99.90;;;6.10;100.00;100483.22;5005624;28;20040;-79
2023/03/30 02:41:28;;;;;;;24.27;15.02;;;7.50;99.90;;;6.05;100.00;100475.53;5026148;28;20036;-79
2023/03/30 02:44:14;;;;;;;32.05;16.85;;;7.50;99.90;;;6.04;100.00;100472.97;5034215;28;20084;-79
2023/03/30 02:47:07;;;;;;;;;;;7.40;99.90;;;5.96;100.00;100475.81;5016480;28;20042;-79
2023/03/30 02:50:10;;;;;;;25.52;15.68;;;7.40;99.90;;;5.97;100.00;100472.31;5027337;28;20374;-79
2023/03/30 02:53:18;;;;;;;24.75;16.20;;;7.40;99.90;;;6.05;100.00;100482.53;5004047;23;20433;-79
2023/03/30 02:56:36;;;;;;;28.85;15.20;;;7.30;99.90;;;5.82;100.00;100468.38;4937639;28;20091;-78
2023/03/30 02:59:09;;;;;;;28.75;16.60;;;7.40;99.90;;;5.95;100.00;100467.13;4973615;28;20042;-79
2023/03/30 03:02:21;;;;;;;32.50;17.50;;;7.30;99.90;;;5.93;100.00;100463.66;4954801;28;20512;-79
2023/03/30 03:04:52;;;;;;;29.13;16.63;;;7.30;99.90;;;5.90;100.00;100448.09;4956868;28;20502;-79
2023/03/30 03:07:22;;;;;;;29.30;16.58;;;7.30;99.90;;;5.84;100.00;100447.44;4982665;28;20521;-79
2023/03/30 03:09:48;;;;;;;25.83;17.48;;;7.30;99.90;;;5.85;100.00;100436.94;4946793;28;20504;-79
2023/03/30 03:12:15;;;;;;;37.05;17.73;;;7.30;99.90;;;5.79;100.00;100431.91;4958887;28;20038;-78
2023/03/30 03:14:44;;;;;;;32.58;17.52;;;7.20;99.90;;;5.81;100.00;100419.66;4999830;23;20047;-79
2023/03/30 03:17:28;;;;;;;28.00;16.85;;;7.20;99.90;;;5.65;100.00;100419.25;4983309;28;20041;-79
2023/03/30 03:20:04;;;;;;;28.05;16.35;;;7.20;99.90;;;5.72;100.00;100415.56;4968260;28;20034;-79
2023/03/30 03:22:42;;;;;;;35.55;19.48;;;;;;;5.80;100.00;100407.47;4974078;28;20757;-79
2023/03/30 03:25:23;;;;;;;37.17;20.20;;;7.30;99.90;;;5.91;100.00;100402.75;4927960;28;20027;-79
2023/03/30 03:27:57;;;;;;;25.40;16.27;;;;;;;5.84;100.00;100403.84;4881552;28;20116;-79
2023/03/30 03:30:23;;;;;;;38.33;19.23;;;7.30;99.90;;;5.82;100.00;100395.22;4889790;28;20088;-78
2023/03/30 03:32:50;;;;;;;37.95;20.63;;;7.30;99.90;;;5.83;100.00;100388.22;4893292;23;20080;-79
2023/03/30 03:35:16;;;;;;;31.73;18.98;;;7.30;99.90;;;5.73;100.00;100379.84;4962606;28;20533;-79
2023/03/30 03:37:51;;;;;;;30.48;18.75;;;7.20;99.90;;;5.79;100.00;100373.53;4949632;28;20056;-79
2023/03/30 03:40:30;;;;;;;;;;;;;;;;;;;;;
2023/03/30 03:43:14;;;;;;;40.53;21.42;;;7.30;99.90;;;5.81;100.00;100372.63;4953118;28;21436;-79
2023/03/30 03:45:53;;;;;;;34.80;20.38;;;7.30;99.90;;;5.92;100.00;100364.44;4940378;28;20069;-80
2023/03/30 03:48:32;;;;;;;32.33;20.58;;;7.30;99.90;;;5.88;100.00;100363.66;4953628;28;20057;-79
2023/03/30 03:51:01;;;;;;;36.85;21.15;;;;;;;5.88;100.00;100363.66;4946342;28;20037;-79
2023/03/30 03:53:32;;;;;;;39.20;22.15;;;7.30;99.90;;;5.90;100.00;100353.16;5029890;22;20475;-79
2023/03/30 03:55:58;;;;;;;38.75;22.67;;;7.30;99.90;;;5.83;100.00;100342.06;4996564;28;20050;-78
2023/03/30 03:58:25;;;;;;;39.42;24.08;;;7.30;99.90;;;5.84;100.00;100333.31;4996619;28;20051;-78
2023/03/30 04:01:03;;;;;;;39.42;24.52;;;;;;;5.88;100.00;100344.53;4920355;28;20053;-81
2023/03/30 04:03:32;;;;;;;33.10;20.48;;;7.30;99.90;;;5.79;100.00;100337.84;4941772;28;20204;-79
2023/03/30 04:06:22;;;;;;;37.95;22.15;;;;;;;5.76;100.00;100340.53;4941516;28;20049;-82
2023/03/30 04:08:53;;;;;;;40.35;25.17;;;7.30;99.90;;;5.87;100.00;100333.19;4935835;28;20561;-78
2023/03/30 04:11:45;;;;;;;39.72;22.88;;;7.30;99.90;;;5.98;100.00;100335.47;4978367;28;20040;-79
2023/03/30 04:14:22;;;;;;;40.83;24.15;;;7.30;99.90;;;5.95;100.00;100331.22;4929455;28;20036;-79
2023/03/30 04:17:03;;;;;;;43.50;26.88;;;7.40;99.90;;;6.05;100.00;100339.63;4925519;28;20130;-79
2023/03/30 04:19:42;;;;;;;44.20;26.23;;;7.40;99.90;;;5.99;100.00;100333.75;4902602;28;20419;-79
2023/03/30 04:22:12;;;;;;;40.65;26.05;;;7.40;99.90;;;5.99;100.00;100321.53;4902326;28;20652;-79
2023/03/30 04:25:16;;;;;;;;;;;;;;;;;;;;;
2023/03/30 04:27:42;;;;;;;50.67;27.05;;;;;;;5.99;100.00;100323.28;4928543;28;20728;-78
2023/03/30 04:30:12;;;;;;;44.00;26.92;;;7.40;99.90;;;6.03;100.00;100323.13;4962826;28;20034;-79
2023/03/30 04:33:18;;;;;;;;;;;;;;;;;;;;;
2023/03/30 04:35:45;;;;;;;47.92;28.77;;;7.40;99.90;;;6.02;100.00;100318.78;4903069;28;20477;-81
2023/03/30 04:38:11;;;;;;;48.78;29.65;;;7.50;99.90;;;6.06;100.00;100309.09;4946690;28;20073;-81
2023/03/30 04:40:36;;;;;;;49.40;29.58;;;7.50;99.90;;;6.04;100.00;100318.75;4949158;28;20071;-81
2023/03/30 04:43:13;;;;;;;52.22;30.20;;;7.40;99.90;;;5.94;100.00;100302.50;4914139;28;20038;-81
2023/03/30 04:45:52;;;;;;;48.38;28.77;;;7.40;99.90;;;5.88;100.00;100298.34;4886359;28;20037;-77
2023/03/30 04:48:31;;;;;;;51.40;30.50;;;;;;;5.89;100.00;100296.56;4883791;28;20118;-81
2023/03/30 04:51:13;;;;;;;47.40;29.95;;;;;;;5.89;100.00;100297.41;4892779;28;20046;-78
2023/03/30 04:53:53;;;;;;;50.03;30.58;;;;;;;5.93;100.00;100291.19;4899783;28;20131;-79
2023/03/30 04:56:21;;;;;;;46.75;28.45;;;;;;;5.79;100.00;100280.38;4914529;28;20063;-79
2023/03/30 04:58:56;;;;;;;39.17;22.48;;;;;;;5.74;100.00;100271.81;4937494;28;21478;-79
2023/03/30 05:01:23;;;;;;;37.97;21.70;;;7.30;99.90;;;5.67;100.00;100267.72;4894029;28;20039;-79
2023/03/30 05:03:48;;;;;;;46.70;29.02;;;7.30;99.90;;;5.78;100.00;100255.13;4935920;28;20058;-79
2023/03/30 05:06:24;;;;;;;47.28;27.02;;;7.30;99.90;;;5.83;100.00;100245.41;4968912;28;20503;-79
2023/03/30 05:09:02;;;;;;;48.97;29.55;;;;;;;5.82;100.00;100243.66;4946504;28;20042;-79
2023/03/30 05:11:46;;;;;;;50.83;31.77;;;7.30;99.90;;;5.91;100.00;100248.56;4912984;28;20043;-78
2023/03/30 05:14:42;;;;;;;52.78;29.67;;;7.30;99.90;;;5.88;100.00;100238.25;4902472;28;20129;-81
2023/03/30 05:17:20;;;;;;;51.27;29.83;;;7.30;99.90;;;5.90;100.00;100246.88;4896731;28;20070;-78
2023/03/30 05:19:59;;;;;;;;;;;;;;;;;;;;;
2023/03/30 05:22:25;;;;;;;51.55;30.40;;;7.40;99.90;;;5.99;100.00;100239.66;4895963;28;20054;-79
2023/03/30 05:24:52;;;;;;;46.20;28.10;;;;;;;6.04;100.00;100250.78;4923446;28;20664;-79
2023/03/30 05:27:29;;;;;;;46.42;28.83;;;7.50;99.90;;;6.13;100.00;100246.09;4917401;28;20462;-80
2023/03/30 05:29:55;;;;;;;47.67;28.52;;;7.60;99.90;;;6.14;100.00;100247.78;4923460;28;20032;-79
2023/03/30 05:32:21;;;;;;;57.28;30.40;;;7.60;99.90;;;6.17;100.00;100238.97;4923824;28;20038;-78
2023/03/30 05:34:53;;;;;;;48.42;29.00;;;7.60;99.90;;;6.15;100.00;100246.03;4928507;28;20072;-79
2023/03/30 05:37:19;;;;;;;41.92;27.70;;;7.50;99.90;;;6.09;100.00;100233.19;4930056;28;20038;-78
2023/03/30 05:39:46;;;;;;;48.55;28.17;;;7.60;99.90;;;6.20;100.00;100232.78;4923257;28;20081;-78
2023/03/30 05:42:13;;;;;;;40.85;28.55;;;;;;;6.24;100.00;100229.16;4882882;28;20041;-81
2023/03/30 05:45:04;;;;;;;48.47;29.98;;;7.60;99.90;;;6.13;100.00;100221.69;4922671;28;20114;-78
2023/03/30 05:47:34;;;;;;;43.60;26.90;;;7.50;99.90;;;6.06;100.00;100207.16;4931372;28;20042;-79
2023/03/30 05:50:13;;;;;;;49.63;27.58;;;7.60;99.90;;;6.09;100.00;100207.03;4948603;28;20081;-80
2023/03/30 05:53:03;;;;;;;24.08;12.73;;;7.50;99.90;;;6.02;100.00;100203.78;4887359;28;20120;-82
2023/03/30 05:58:55;;;;;;;48.65;27.42;;;7.50;99.90;;;6.10;100.00;100224.44;4919292;28;20038;-79
2023/03/30 06:01:23;;;;;;;50.70;27.63;;;;;;;6.08;100.00;100213.19;4890057;28;20036;-79
2023/03/30 06:04:05;;;;;;;54.80;28.88;;;7.50;99.90;;;6.14;100.00;100207.75;4929841;28;20113;-81
2023/03/30 06:06:43;;;;;;;50.15;28.85;;;7.60;99.90;;;6.15;100.00;100204.19;4885238;28;20046;-79
2023/03/30 06:09:34;;;;;;;44.70;27.45;;;7.60;99.90;;;6.07;100.00;100201.88;4962816;28;20041;-79
2023/03/30 06:12:04;;;;;;;33.58;20.00;;;7.50;99.90;;;5.97;100.00;100191.81;4936579;28;20046;-80
2023/03/30 06:14:54;;;;;;;33.75;20.08;;;7.50;99.90;;;6.01;100.00;100182.97;4899735;28;20042;-79
2023/03/30 06:17:24;;;;;;;47.58;27.25;;;;;;;6.06;100.00;100183.63;4890503;28;20874;-81
2023/03/30 06:20:15;;;;;;;28.15;15.98;;;7.50;99.90;;;5.99;100.00;100175.16;4902310;28;20469;-79
2023/03/30 06:22:44;;;;;;;43.90;25.10;;;;;;;6.06;100.00;100183.63;4925295;28;21032;-78
2023/03/30 06:25:22;;;;;;;42.72;26.80;;;7.60;99.90;;;6.14;100.00;100185.06;4928255;28;20435;-79
2023/03/30 06:28:15;;;;;;;41.50;22.85;;;;;;;6.17;100.00;100184.09;4894214;28;20490;-79
2023/03/30 06:30:44;;;;;;;46.88;26.65;;;7.60;99.90;;;6.23;100.00;100175.19;4932306;28;20038;-79
2023/03/30 06:33:36;;;;;;;44.63;26.60;;;7.60;99.90;;;6.19;100.00;100166.59;4935089;28;20047;-79
2023/03/30 06:36:03;;;;;;;46.00;24.70;;;7.70;99.90;;;6.24;100.00;100151.59;4896383;28;20062;-78
2023/03/30 06:38:34;;;;;;;53.80;28.90;;;7.70;99.90;;;6.32;100.00;100128.59;4955850;28;20057;-79
2023/03/30 06:41:07;;;;;;;51.63;28.50;;;7.70;99.90;;;6.28;100.00;100126.16;4911937;28;20058;-78
2023/03/30 06:43:33;;;;;;;42.42;24.63;;;7.70;99.90;;;6.26;100.00;100134.06;4942790;28;20109;-78
2023/03/30 06:46:43;;;;;;;46.90;28.20;;;7.80;99.90;;;6.34;100.00;100139.84;4925504;28;20457;-79
2023/03/30 06:49:24;;;;;;;48.92;25.85;;;7.80;99.90;;;6.35;100.00;100128.50;4937542;28;20419;-80
2023/03/30 06:53:25;;;;;;;44.75;26.55;;;7.80;99.90;;;6.39;100.00;100117.91;4878412;28;20439;-79
2023/03/30 06:56:03;;;;;;;34.13;21.02;;;7.90;99.90;;;6.55;100.00;100124.25;4854487;29;20126;-79
2023/03/30 06:58:45;;;;;;;54.42;27.90;;;;;;;6.71;100.00;100120.09;4861593;29;20048;-79
2023/03/30 07:01:23;;;;;;;49.40;28.00;;;8.10;99.90;;;6.71;100.00;100112.25;4840231;29;20398;-79
2023/03/30 07:04:04;;;;;;;41.45;25.92;;;8.10;99.90;;;6.73;100.00;100115.66;4835856;29;20644;-79
2023/03/30 07:07:13;;;;;;;44.88;27.88;;;8.10;99.90;;;6.81;100.00;100119.75;4876409;29;20055;-80
2023/03/30 07:10:13;;;;;;;45.58;28.13;;;8.20;99.90;;;6.92;100.00;100117.53;4830632;29;20640;-79
2023/03/30 07:12:53;;;;;;;44.20;27.40;;;8.30;99.90;;;6.90;100.00;100108.88;4876714;28;20039;-79
2023/03/30 07:16:12;;;;;;;43.58;26.23;;;;;;;6.97;100.00;100099.84;4954110;28;20037;-79
2023/03/30 07:18:43;;;;;;;48.97;25.48;;;8.40;99.90;;;7.03;100.00;100093.53;4882991;28;20047;-78
2023/03/30 07:21:09;;;;;;;43.35;25.67;;;8.40;99.90;;;7.14;100.00;100091.31;4938777;28;20034;-79
2023/03/30 07:23:40;;;;;;;39.72;25.10;;;8.50;99.90;;;7.24;100.00;100078.69;4953427;28;20054;-79
2023/03/30 07:26:06;;;;;;;44.00;26.00;;;8.60;99.90;;;7.56;100.00;100080.75;4963200;28;20108;-79
2023/03/30 07:28:32;;;;;;;43.05;23.60;;;8.80;99.90;;;7.76;100.00;100076.38;4917875;28;20089;-78
2023/03/30 07:31:10;;;;;;;38.33;24.00;;;8.90;99.90;;;7.99;100.00;100065.69;4970069;28;20110;-79
2023/03/30 07:33:35;;;;;;;42.22;23.80;;;9.10;99.90;;;8.39;100.00;100076.06;4934581;28;20125;-79
2023/03/30 07:36:02;;;;;;;35.88;23.77;;;9.50;99.90;;;8.89;100.00;100077.16;4926253;28;20037;-78
2023/03/30 07:38:28;;;;;;;38.65;23.95;;;9.80;99.90;;;9.01;100.00;100085.28;4960263;28;20065;-79
2023/03/30 07:40:56;;;;;;;34.08;23.15;;;9.90;99.90;;;8.80;100.00;100083.72;4957078;28;20026;-78
2023/03/30 07:43:22;;;;;;;43.45;25.10;;;9.90;99.90;;;8.62;100.00;100091.59;4960775;28;20042;-81
2023/03/30 07:45:48;;;;;;;41.83;23.60;;;9.90;99.90;;;8.41;100.00;100095.25;4956544;28;20102;-79
2023/03/30 07:48:13;;;;;;;38.17;24.02;;;9.70;99.90;;;8.16;100.00;100092.88;4943425;28;20049;-78
2023/03/30 07:50:40;;;;;;;38.45;21.17;;;9.60;99.90;;;8.01;100.00;100092.69;4921908;28;20035;-78
2023/03/30 07:53:06;;;;;;;40.97;24.55;;;9.50;99.90;;;8.04;100.00;100082.97;4937154;28;20054;-78
2023/03/30 07:55:32;;;;;;;41.45;25.05;;;9.40;99.90;;;8.01;100.00;100074.34;4931416;28;20114;-78
2023/03/30 07:57:58;;;;;;;43.80;25.60;;;9.50;99.90;;;8.09;100.00;100060.00;4946619;28;20050;-78
2023/03/30 08:00:31;;;;;;;36.83;22.00;;;;;;;8.14;100.00;100056.25;4890679;28;20046;-79
2023/03/30 08:02:59;;;;;;;36.38;22.45;;;9.40;99.90;;;8.11;100.00;100048.53;4932575;28;20574;-78
2023/03/30 08:05:26;;;;;;;38.20;22.50;;;9.50;99.90;;;8.28;100.00;100039.00;4896712;28;20056;-77
2023/03/30 08:08:00;;;;;;;34.50;19.67;;;9.50;99.90;;;8.19;100.00;100035.91;4909165;28;20041;-77
2023/03/30 08:10:26;;;;;;;39.00;24.05;;;9.60;99.90;;;8.38;100.00;100041.13;4930534;28;20039;-77
2023/03/30 08:12:52;;;;;;;35.30;22.75;;;9.70;99.90;;;8.52;100.00;100052.75;4967844;28;20054;-78
2023/03/30 08:15:20;;;;;;;43.00;24.77;;;9.80;99.90;;;8.60;100.00;100053.22;4956035;28;20492;-78
2023/03/30 08:17:48;;;;;;;36.17;23.98;;;9.80;99.90;;;8.53;100.00;100054.44;4959045;28;20405;-78
2023/03/30 08:20:14;;;;;;;43.15;24.90;;;9.90;99.90;;;8.58;100.00;100042.78;4910091;28;20437;-77
2023/03/30 08:22:41;;;;;;;36.83;23.73;;;9.90;99.90;;;8.61;100.00;100031.28;4949092;28;20080;-79
2023/03/30 08:25:08;;;;;;;37.67;24.27;;;9.90;99.90;;;8.67;100.00;100023.13;4951595;28;20039;-77
2023/03/30 08:27:33;;;;;;;38.97;21.65;;;9.90;99.90;;;8.56;100.00;100017.56;4945275;28;20039;-77
2023/03/30 08:29:59;;;;;;;39.90;23.60;;;9.90;99.90;;;8.71;100.00;100002.81;4952532;28;20031;-78
2023/03/30 08:32:25;;;;;;;40.70;22.83;;;10.00;99.90;;;8.68;100.00;100009.06;4961961;28;20506;-78
2023/03/30 08:34:53;;;;;;;38.40;24.23;;;10.00;99.90;;;8.65;100.00;100011.84;4955287;28;20050;-78
2023/03/30 08:37:20;;;;;;;39.88;23.88;;;10.00;99.90;;;8.58;100.00;100013.94;4963407;28;20627;-78
2023/03/30 08:39:46;;;;;;;36.50;22.55;;;;;;;8.57;100.00;100011.38;4927998;28;20029;-77
2023/03/30 08:42:43;;;;;;;28.85;17.73;;;9.90;99.90;;;8.61;100.00;99995.38;4916874;28;20073;-77
2023/03/30 08:45:11;;;;;;;35.67;22.77;;;9.90;99.90;;;8.67;100.00;99989.00;4957897;28;20064;-78
2023/03/30 08:47:47;;;;;;;37.00;23.60;;;10.00;99.90;;;8.76;100.00;99992.94;4933079;28;20038;-78
2023/03/30 08:50:33;;;;;;;40.83;25.60;;;10.10;99.90;;;8.91;100.00;99997.41;4929756;28;20055;-78
2023/03/30 08:53:00;;;;;;;37.47;22.67;;;10.20;99.90;;;8.92;100.00;99987.72;4964230;28;20582;-77
2023/03/30 08:55:38;;;;;;;40.88;24.25;;;10.20;99.90;;;9.14;100.00;99977.81;4934338;28;20112;-78
2023/03/30 08:58:26;;;;;;;37.58;22.98;;;10.40;99.90;;;9.32;100.00;99969.91;4964387;28;20042;-78
2023/03/30 09:01:10;;;;;;;38.80;23.65;;;10.50;99.90;;;9.53;100.00;99971.38;4983547;28;20039;-78
2023/03/30 09:03:58;;;;;;;30.42;21.08;;;10.70;99.90;;;9.79;100.00;99975.19;4967480;28;20078;-78
2023/03/30 09:06:46;;;;;;;31.10;19.88;;;11.00;99.90;;;10.13;100.00;99983.84;4931384;28;20111;-77
2023/03/30 09:09:21;;;;;;;26.02;18.25;;;11.20;99.90;;;10.41;100.00;99998.06;4971848;28;20034;-78
2023/03/30 09:11:57;;;;;;;28.45;18.73;;;11.50;99.90;;;10.64;100.00;99988.84;4940440;28;20081;-78
2023/03/30 09:14:45;;;;;;;24.85;15.68;;;11.60;99.90;;;10.74;99.45;99997.91;4936014;28;20121;-77
2023/03/30 09:17:32;;;;;;;24.23;15.73;;;11.80;99.90;;;10.79;98.14;99998.47;4958821;28;20066;-78
2023/03/30 09:20:27;;;;;;;23.95;15.55;;;11.90;99.90;;;10.86;96.94;100001.59;4949437;28;20045;-77
2023/03/30 09:22:57;;;;;;;23.70;14.77;;;11.90;99.90;;;10.91;95.84;99998.69;4981549;28;24150;-77
2023/03/30 09:26:13;;;;;;;21.98;15.88;;;12.00;99.90;;;10.96;95.30;99989.56;4951154;28;20082;-77
2023/03/30 09:29:13;;;;;;;29.90;16.17;;;12.10;99.90;;;11.01;95.08;99986.66;4958583;28;20045;-78
2023/03/30 09:31:58;;;;;;;27.83;15.98;;;12.10;99.90;;;11.03;95.01;99985.63;4952581;28;20118;-78
2023/03/30 09:34:55;;;;;;;22.90;14.07;;;12.20;99.90;;;11.13;95.19;99980.66;4938304;28;20134;-76
2023/03/30 09:37:31;;;;;;;23.17;13.68;;;12.30;99.90;;;11.43;94.88;99967.38;4965509;28;20039;-77
2023/03/30 09:40:19;;;;;;;21.57;12.53;;;12.50;99.90;;;11.83;94.15;99978.03;4933740;28;20080;-78
2023/03/30 09:43:21;;;;;;;17.77;11.18;;;12.80;99.90;;;12.14;92.04;99965.56;4963834;28;20050;-77
2023/03/30 09:45:51;;;;;;;18.20;11.95;;;13.10;99.90;;;12.35;89.93;99963.28;4965031;28;20183;-77
2023/03/30 09:48:20;;;;;;;17.10;11.57;;;13.30;99.90;;;12.54;88.77;99965.56;4947939;28;20097;-77
2023/03/30 09:50:52;;;;;;;16.77;11.45;;;13.40;99.90;;;12.63;87.71;99972.84;4952436;28;20053;-78
2023/03/30 09:53:20;;;;;;;17.85;10.95;;;13.50;99.90;;;12.60;87.60;99980.16;4955130;28;20057;-77
2023/03/30 09:56:11;;;;;;;18.63;11.07;;;13.60;99.90;;;12.54;87.24;99980.56;4981398;28;20130;-77
2023/03/30 09:58:41;;;;;;;22.48;11.68;;;13.60;99.90;;;12.67;86.50;99986.72;4975321;28;20522;-77
2023/03/30 10:01:20;;;;;;;23.48;11.35;;;13.70;99.90;;;12.82;87.29;99975.13;4961279;28;20058;-78
2023/03/30 10:04:15;;;;;;;18.20;9.77;;;13.80;99.90;;;12.91;86.64;99958.66;4959470;28;20404;-77
2023/03/30 10:06:52;;;;;;;16.15;10.48;;;13.80;99.90;;;12.91;86.32;99961.28;4965994;28;20038;-76
2023/03/30 10:09:23;;;;;;;15.98;10.13;;;13.80;99.90;;;12.92;86.12;99956.84;4956478;28;20118;-80
2023/03/30 10:11:57;;;;;;;17.38;11.05;;;13.80;99.90;;;12.90;85.97;99954.31;4974815;28;20031;-76
2023/03/30 10:14:33;;;;;;;16.85;9.85;;;13.80;99.90;;;12.87;86.28;99951.88;4934629;28;20039;-76
2023/03/30 10:17:04;;;;;;;18.92;9.45;;;13.90;99.90;;;12.99;86.05;99946.69;4944148;28;20038;-78
2023/03/30 10:19:41;;;;;;;13.38;8.88;;;13.90;99.90;;;13.13;86.13;99936.88;4951462;28;20043;-78
2023/03/30 10:22:24;;;;;;;13.77;9.15;;;14.00;99.90;;;13.18;85.16;99936.53;4963991;28;20031;-77
2023/03/30 10:24:55;;;;;;;16.33;8.30;;;14.10;99.90;;;13.24;84.58;99938.75;4979069;28;20034;-77
2023/03/30 10:27:38;;;;;;;12.40;7.78;;;14.20;99.90;;;13.29;84.33;99944.59;4953017;28;20026;-77
2023/03/30 10:30:23;;;;;;;13.55;8.70;;;14.20;99.90;;;13.29;83.66;99939.31;4968314;28;20582;-77
2023/03/30 10:32:51;;;;;;;14.98;8.15;;;14.30;99.90;;;13.34;83.74;99931.88;4969035;28;20049;-76
2023/03/30 10:35:39;;;;;;;12.85;8.68;;;14.30;99.90;;;13.34;83.83;99925.75;4960741;28;20050;-78
2023/03/30 10:38:12;;;;;;;13.90;7.65;;;14.30;99.90;;;13.42;83.44;99931.34;4978889;28;20430;-77
2023/03/30 10:40:44;;;;;;;14.30;7.57;;;14.40;99.90;;;13.46;83.04;99939.91;4974203;28;20030;-77
2023/03/30 10:43:20;;;;;;;12.95;7.72;;;14.40;99.90;;;13.52;83.51;99927.09;4954233;28;20042;-77
2023/03/30 10:45:56;;;;;;;13.90;8.30;;;14.40;99.90;;;13.52;82.92;99928.91;4949355;28;20047;-78
2023/03/30 10:48:43;;;;;;;16.00;7.43;;;14.40;99.90;;;13.46;83.15;99929.34;4953442;28;20046;-78
2023/03/30 10:51:41;;;;;;;16.60;7.75;;;14.40;99.90;;;13.38;83.26;99923.75;4960549;28;20042;-78
2023/03/30 10:54:46;;;;;;;10.63;7.20;;;14.40;99.90;;;13.38;83.79;99935.16;4979687;28;20046;-78
2023/03/30 10:57:23;;;;;;;13.40;7.22;;;14.40;99.90;;;13.41;83.58;99939.38;4976087;28;20066;-78
2023/03/30 11:01:00;;;;;;;13.93;7.50;;;14.40;99.90;;;13.31;83.38;99939.19;4959055;28;20038;-77
2023/03/30 11:03:31;;;;;;;13.77;7.53;;;14.40;99.90;;;13.28;83.64;99940.28;4947660;28;20026;-77
2023/03/30 11:06:37;;;;;;;14.55;7.28;;;14.30;99.90;;;13.19;83.14;99945.31;4940859;28;20093;-78
2023/03/30 11:09:11;;;;;;;13.45;6.80;;;14.20;99.90;;;13.09;83.45;99934.56;4952902;28;20137;-77
2023/03/30 11:11:47;;;;;;;12.95;6.43;;;14.20;99.90;;;13.08;83.37;99941.59;4933207;28;20590;-78